Time;durP1;ratioP1;P1;durP2;ratioP2;P2;SDS_P1;SDS_P2;PMS_P1;PMS_P2;Temp;Humidity;BMP_temperature;BMP_pressure;BME280_temperature;BME280_humidity;BME280_pressure;Samples;Min_cycle;Max_cycle;Signal;HPM_P1;HPM_P2
2022/07/29 00:00:15;;;;;;;3.63;1.45;;;15.10;99.90;;;;;;5036750;28;20171;-57
2022/07/29 00:02:40;;;;;;;3.30;1.67;;;15.10;99.90;;;;;;5042770;28;20064;-57
2022/07/29 00:05:08;;;;;;;2.42;1.60;;;15.10;99.90;;;;;;5032253;28;20091;-57
2022/07/29 00:07:33;;;;;;;4.18;1.88;;;15.10;99.90;;;;;;5034615;28;20037;-57
2022/07/29 00:09:59;;;;;;;4.05;1.85;;;15.10;99.90;;;;;;5035642;28;20119;-57
2022/07/29 00:12:25;;;;;;;3.85;1.52;;;15.10;99.90;;;;;;5037478;28;20034;-57
2022/07/29 00:14:51;;;;;;;2.92;1.40;;;15.00;99.90;;;;;;5036764;28;20181;-58
2022/07/29 00:17:16;;;;;;;2.65;1.60;;;15.00;99.90;;;;;;5036366;28;20079;-57
2022/07/29 00:19:42;;;;;;;4.32;1.55;;;15.00;99.90;;;;;;5037587;28;20059;-57
2022/07/29 00:22:07;;;;;;;3.50;1.33;;;15.00;99.90;;;;;;5037547;28;20041;-59
2022/07/29 00:24:33;;;;;;;2.03;1.67;;;15.00;99.90;;;;;;5044035;28;20037;-57
2022/07/29 00:26:59;;;;;;;3.88;1.83;;;15.00;99.90;;;;;;5037148;28;20076;-57
2022/07/29 00:29:24;;;;;;;3.13;1.73;;;15.00;99.90;;;;;;5017680;28;20071;-56
2022/07/29 00:31:50;;;;;;;4.05;1.70;;;15.00;99.90;;;;;;5034318;28;20432;-57
2022/07/29 00:37:05;;;;;;;3.60;1.70;;;15.00;99.90;;;;;;4965659;28;20133;-57
2022/07/29 00:39:30;;;;;;;3.92;1.70;;;15.00;99.90;;;;;;4970957;28;20137;-57
2022/07/29 00:41:56;;;;;;;5.45;1.65;;;15.00;99.90;;;;;;4965532;28;20098;-56
2022/07/29 00:44:22;;;;;;;3.50;1.70;;;15.10;99.90;;;;;;4971028;28;20770;-59
2022/07/29 00:46:47;;;;;;;6.53;2.15;;;15.00;99.90;;;;;;4962656;28;20051;-57
2022/07/29 00:49:13;;;;;;;2.95;1.70;;;15.00;99.90;;;;;;4968690;28;20537;-57
2022/07/29 00:51:39;;;;;;;1.75;1.25;;;15.10;99.90;;;;;;4970797;28;20042;-57
2022/07/29 00:54:05;;;;;;;5.80;1.80;;;15.00;99.90;;;;;;4950526;28;20043;-57
2022/07/29 00:56:32;;;;;;;4.65;1.70;;;15.10;99.90;;;;;;4963347;28;20194;-58
2022/07/29 00:58:59;;;;;;;3.85;1.60;;;15.00;99.90;;;;;;4965615;28;20074;-57
2022/07/29 01:01:25;;;;;;;3.70;1.85;;;15.00;99.90;;;;;;4963300;28;20470;-57
2022/07/29 01:03:50;;;;;;;3.47;1.98;;;15.00;99.90;;;;;;4963969;28;20039;-58
2022/07/29 01:06:17;;;;;;;2.22;1.77;;;15.00;99.90;;;;;;4963769;28;20120;-56
2022/07/29 01:08:45;;;;;;;6.13;2.03;;;15.00;99.90;;;;;;4965685;28;20093;-57
2022/07/29 01:11:11;;;;;;;2.92;1.92;;;15.00;99.90;;;;;;4966325;28;20298;-57
2022/07/29 01:13:37;;;;;;;3.33;1.98;;;15.00;99.90;;;;;;4980413;28;21660;-56
2022/07/29 01:16:15;;;;;;;3.47;1.52;;;15.00;99.90;;;;;;5016729;28;20048;-58
2022/07/29 01:18:46;;;;;;;4.47;1.83;;;15.00;99.90;;;;;;5015546;28;20116;-56
2022/07/29 01:21:31;;;;;;;4.13;1.88;;;15.00;99.90;;;;;;5013053;28;20050;-56
2022/07/29 01:24:02;;;;;;;3.25;1.90;;;15.00;99.90;;;;;;5018116;28;20412;-56
2022/07/29 01:26:36;;;;;;;3.72;2.00;;;15.00;99.90;;;;;;5016811;28;20457;-58
2022/07/29 01:29:23;;;;;;;1.88;1.67;;;15.00;99.90;;;;;;5016119;28;20079;-56
2022/07/29 01:32:01;;;;;;;4.20;1.80;;;15.00;99.90;;;;;;5015585;28;20037;-57
2022/07/29 01:34:33;;;;;;;2.83;1.70;;;14.90;99.90;;;;;;5016989;28;20068;-56
2022/07/29 01:37:20;;;;;;;5.28;2.10;;;14.90;99.90;;;;;;5017021;28;20038;-56
2022/07/29 01:39:48;;;;;;;2.58;1.80;;;14.90;99.90;;;;;;5021625;28;20053;-56
2022/07/29 01:42:20;;;;;;;3.53;1.75;;;15.00;99.90;;;;;;5036874;28;20048;-56
2022/07/29 01:44:58;;;;;;;4.07;1.88;;;14.90;99.90;;;;;;5040717;28;20083;-55
2022/07/29 01:47:32;;;;;;;3.20;2.00;;;15.00;99.90;;;;;;5035323;28;20392;-57
2022/07/29 01:50:00;;;;;;;3.55;2.00;;;14.90;99.90;;;;;;5033913;28;20037;-56
2022/07/29 01:52:30;;;;;;;;;;;14.90;99.90;;;;;;5034467;28;20036;-57
2022/07/29 01:55:02;;;;;;;5.03;1.67;;;14.90;99.90;;;;;;5014872;28;19967;-57
2022/07/29 01:57:30;;;;;;;5.10;1.95;;;14.90;99.90;;;;;;5035167;28;20075;-57
2022/07/29 01:59:58;;;;;;;4.30;1.70;;;14.90;99.90;;;;;;5016727;28;20535;-57
2022/07/29 02:02:25;;;;;;;4.03;1.90;;;14.90;99.90;;;;;;5037646;28;20082;-57
2022/07/29 02:04:53;;;;;;;4.20;2.05;;;14.90;99.90;;;;;;5037924;28;20099;-57
2022/07/29 02:07:21;;;;;;;2.08;1.52;;;14.90;99.90;;;;;;5040440;28;20036;-57
2022/07/29 02:09:49;;;;;;;5.03;2.05;;;14.90;99.90;;;;;;5037597;28;20044;-56
2022/07/29 02:12:16;;;;;;;;;;;14.80;99.90;;;;;;5036214;28;21266;-57
2022/07/29 02:14:47;;;;;;;2.65;1.70;;;14.80;99.90;;;;;;5041603;28;19947;-56
2022/07/29 02:17:16;;;;;;;2.83;1.90;;;14.80;99.90;;;;;;5038589;28;20075;-57
2022/07/29 02:19:44;;;;;;;2.83;1.98;;;14.80;99.90;;;;;;5041204;28;20045;-57
2022/07/29 02:22:12;;;;;;;2.28;1.58;;;14.80;99.90;;;;;;5042860;28;20080;-56
2022/07/29 02:24:40;;;;;;;3.65;1.70;;;14.80;99.90;;;;;;5039351;28;20045;-56
2022/07/29 02:27:07;;;;;;;5.53;1.65;;;14.80;99.90;;;;;;5034226;28;20086;-58
2022/07/29 02:29:34;;;;;;;5.07;2.00;;;14.80;99.90;;;;;;5039523;28;20037;-56
2022/07/29 02:32:02;;;;;;;3.17;1.90;;;14.80;99.90;;;;;;5037942;28;20127;-55
2022/07/29 02:34:29;;;;;;;4.07;2.10;;;14.80;99.90;;;;;;5043076;28;20052;-57
2022/07/29 02:36:56;;;;;;;4.07;2.20;;;14.80;99.90;;;;;;5039444;28;20056;-56
2022/07/29 02:42:03;;;;;;;3.40;1.80;;;14.80;99.90;;;;;;4982175;28;20305;-49
2022/07/29 02:44:29;;;;;;;4.07;2.00;;;14.80;99.90;;;;;;4968025;28;20053;-46
2022/07/29 02:47:19;;;;;;;3.03;1.75;;;14.80;99.90;;;;;;4980500;28;20039;-50
2022/07/29 02:49:59;;;;;;;5.18;1.77;;;14.80;99.90;;;;;;4986822;28;20043;-49
2022/07/29 02:52:44;;;;;;;3.53;1.90;;;14.70;99.90;;;;;;4976774;28;20173;-49
2022/07/29 02:55:14;;;;;;;3.67;2.00;;;14.70;99.90;;;;;;4986035;28;20042;-47
2022/07/29 02:57:47;;;;;;;3.70;2.00;;;14.80;99.90;;;;;;4976091;28;20058;-46
2022/07/29 03:00:15;;;;;;;3.30;1.85;;;14.70;99.90;;;;;;4987945;28;20053;-46
2022/07/29 03:02:44;;;;;;;4.13;1.77;;;14.70;99.90;;;;;;4981167;28;20129;-47
2022/07/29 03:05:17;;;;;;;6.25;1.77;;;14.70;99.90;;;;;;4984704;28;20133;-46
2022/07/29 03:07:47;;;;;;;3.63;2.10;;;14.70;99.90;;;;;;4987073;28;20057;-46
2022/07/29 03:10:13;;;;;;;2.95;1.67;;;14.70;99.90;;;;;;4983417;28;20157;-47
2022/07/29 03:12:40;;;;;;;4.07;1.90;;;14.70;99.90;;;;;;4981093;28;20168;-46
2022/07/29 03:15:06;;;;;;;3.67;2.00;;;14.60;99.90;;;;;;4987697;28;20038;-45
2022/07/29 03:17:33;;;;;;;3.30;1.90;;;14.60;99.90;;;;;;4984985;28;20133;-52
2022/07/29 03:19:59;;;;;;;5.97;2.20;;;14.60;99.90;;;;;;4985563;28;20043;-46
2022/07/29 03:22:25;;;;;;;3.33;1.80;;;14.60;99.90;;;;;;4984387;28;20108;-46
2022/07/29 03:24:51;;;;;;;3.88;1.98;;;14.60;99.90;;;;;;4989565;28;20494;-47
2022/07/29 03:27:17;;;;;;;4.57;2.08;;;14.60;99.90;;;;;;4984660;28;20129;-47
2022/07/29 03:29:42;;;;;;;3.20;2.05;;;14.50;99.90;;;;;;4987431;28;20411;-46
2022/07/29 03:32:08;;;;;;;5.07;2.45;;;14.50;99.90;;;;;;4984615;28;20046;-47
2022/07/29 03:34:33;;;;;;;4.35;2.30;;;14.50;99.90;;;;;;4983731;28;20038;-46
2022/07/29 03:36:59;;;;;;;4.65;2.03;;;14.50;99.90;;;;;;4982110;28;20042;-50
2022/07/29 03:39:30;;;;;;;3.65;2.10;;;14.40;99.90;;;;;;4985251;28;20529;-50
2022/07/29 03:41:59;;;;;;;5.25;2.00;;;14.40;99.90;;;;;;4986089;28;20046;-48
2022/07/29 03:44:27;;;;;;;3.05;2.05;;;14.40;99.90;;;;;;4989802;28;20042;-46
2022/07/29 03:46:54;;;;;;;5.70;1.90;;;;;;;;;;4982597;28;20039;-48
2022/07/29 03:49:23;;;;;;;2.58;1.90;;;14.40;99.90;;;;;;4986630;28;20054;-49
2022/07/29 03:51:48;;;;;;;2.80;2.17;;;14.40;99.90;;;;;;4984081;28;20081;-47
2022/07/29 03:54:14;;;;;;;2.88;1.75;;;14.40;99.90;;;;;;4981378;28;20062;-48
2022/07/29 03:56:44;;;;;;;5.88;2.00;;;14.40;99.90;;;;;;4987976;28;20050;-48
2022/07/29 03:59:11;;;;;;;3.60;1.73;;;14.40;99.90;;;;;;4985461;28;20124;-51
2022/07/29 04:01:38;;;;;;;6.65;2.10;;;14.40;99.90;;;;;;4984794;28;20079;-52
2022/07/29 04:04:04;;;;;;;3.75;2.10;;;14.40;99.90;;;;;;4980499;28;20047;-49
2022/07/29 04:06:38;;;;;;;4.03;2.20;;;14.40;99.90;;;;;;4981528;28;20406;-45
2022/07/29 04:09:04;;;;;;;3.17;2.08;;;14.40;99.90;;;;;;4984565;28;20375;-47
2022/07/29 04:11:29;;;;;;;5.55;2.08;;;14.40;99.90;;;;;;4982256;28;20065;-47
2022/07/29 04:13:55;;;;;;;4.05;2.20;;;14.30;99.90;;;;;;4987249;28;20034;-47
2022/07/29 04:16:20;;;;;;;3.03;1.80;;;14.40;99.90;;;;;;4983435;28;20093;-45
2022/07/29 04:18:46;;;;;;;5.18;2.30;;;14.40;99.90;;;;;;4981849;28;20042;-47
2022/07/29 04:21:11;;;;;;;3.15;2.00;;;14.40;99.90;;;;;;4982022;28;20057;-49
2022/07/29 04:23:37;;;;;;;4.82;2.08;;;14.30;99.90;;;;;;4983364;28;20049;-47
2022/07/29 04:26:03;;;;;;;4.30;1.98;;;14.40;99.90;;;;;;4987417;28;20081;-47
2022/07/29 04:28:28;;;;;;;5.40;2.15;;;14.40;99.90;;;;;;4979751;28;20125;-47
2022/07/29 04:30:54;;;;;;;3.28;2.08;;;14.40;99.90;;;;;;4986542;28;20462;-46
2022/07/29 04:33:19;;;;;;;6.78;1.90;;;14.40;99.90;;;;;;4968187;28;20047;-47
2022/07/29 04:35:45;;;;;;;3.33;1.83;;;14.80;99.90;;;;;;4987772;28;20034;-46
2022/07/29 04:38:11;;;;;;;4.60;1.92;;;14.50;99.90;;;;;;4981677;28;20058;-46
2022/07/29 04:40:36;;;;;;;3.92;2.00;;;14.50;99.90;;;;;;4990196;28;20045;-49
2022/07/29 04:43:02;;;;;;;3.97;2.00;;;14.50;99.90;;;;;;5000430;28;20050;-47
2022/07/29 04:45:28;;;;;;;2.58;2.05;;;;;;;;;;5004436;28;20478;-48
2022/07/29 04:47:55;;;;;;;2.63;1.83;;;14.60;99.90;;;;;;4998157;28;20049;-46
2022/07/29 04:50:21;;;;;;;3.50;1.80;;;14.70;99.90;;;;;;5003585;28;20038;-50
2022/07/29 04:52:47;;;;;;;5.25;2.03;;;14.70;99.90;;;;;;5000390;28;20042;-49
2022/07/29 04:55:13;;;;;;;2.35;1.77;;;14.70;99.90;;;;;;4998531;28;20449;-46
2022/07/29 04:57:38;;;;;;;6.88;2.10;;;14.80;99.90;;;;;;5003649;28;20072;-50
2022/07/29 05:00:05;;;;;;;3.78;1.85;;;15.00;99.90;;;;;;5002909;28;20038;-47
2022/07/29 05:02:31;;;;;;;3.70;1.98;;;15.20;99.90;;;;;;5011653;28;20439;-46
2022/07/29 05:04:56;;;;;;;3.08;1.88;;;15.70;99.90;;;;;;5010715;28;20068;-49
2022/07/29 05:07:22;;;;;;;3.05;1.92;;;16.40;99.90;;;;;;5002452;28;20125;-47
2022/07/29 05:09:48;;;;;;;3.97;2.20;;;17.20;99.90;;;;;;5001951;28;20149;-49
2022/07/29 05:12:13;;;;;;;5.70;1.90;;;17.80;99.90;;;;;;5009534;28;20096;-49
2022/07/29 05:14:39;;;;;;;4.75;1.65;;;17.80;99.90;;;;;;5009310;28;20053;-50
2022/07/29 05:17:05;;;;;;;3.63;1.63;;;17.80;99.90;;;;;;5003502;28;20042;-50
2022/07/29 05:19:31;;;;;;;5.03;1.90;;;17.50;99.90;;;;;;5000368;28;20387;-47
2022/07/29 05:21:57;;;;;;;3.95;1.80;;;17.20;99.90;;;;;;4998919;28;20145;-51
2022/07/29 05:24:22;;;;;;;3.05;1.75;;;17.10;99.90;;;;;;4997164;28;20137;-51
2022/07/29 05:26:48;;;;;;;3.70;1.50;;;16.80;99.90;;;;;;4993657;28;20483;-50
2022/07/29 05:29:13;;;;;;;3.15;1.67;;;16.90;99.90;;;;;;4995784;28;20049;-50
2022/07/29 05:31:39;;;;;;;2.85;1.80;;;16.90;99.90;;;;;;4992158;28;20347;-48
2022/07/29 05:34:05;;;;;;;2.92;1.85;;;16.80;99.90;;;;;;4997718;28;20069;-51
2022/07/29 05:36:30;;;;;;;2.78;1.80;;;16.80;99.90;;;;;;5002347;28;20094;-47
2022/07/29 05:38:56;;;;;;;6.15;3.78;;;17.00;99.90;;;;;;4996264;28;20042;-46
2022/07/29 05:41:21;;;;;;;4.38;1.90;;;17.40;99.90;;;;;;4992242;28;20053;-47
2022/07/29 05:43:47;;;;;;;5.72;2.33;;;17.50;99.90;;;;;;4998122;28;20045;-49
2022/07/29 05:46:13;;;;;;;2.90;1.75;;;;;;;;;;5001075;28;20052;-47
2022/07/29 05:48:39;;;;;;;5.68;1.77;;;18.10;99.90;;;;;;4994236;28;20046;-53
2022/07/29 05:51:05;;;;;;;5.55;1.92;;;18.40;99.90;;;;;;5004309;28;20044;-47
2022/07/29 05:53:31;;;;;;;4.43;1.90;;;18.40;99.90;;;;;;4985763;28;20070;-48
2022/07/29 05:55:56;;;;;;;3.03;1.60;;;18.60;99.90;;;;;;4999909;28;20405;-49
2022/07/29 05:58:22;;;;;;;2.88;2.00;;;18.70;99.90;;;;;;4982512;28;20790;-51
2022/07/29 06:00:47;;;;;;;4.22;1.70;;;18.90;99.90;;;;;;4999133;28;20034;-52
2022/07/29 06:03:13;;;;;;;4.45;1.75;;;19.60;99.90;;;;;;4995791;28;20038;-47
2022/07/29 06:05:39;;;;;;;4.50;1.60;;;20.30;99.90;;;;;;4999163;28;20048;-49
2022/07/29 06:08:07;;;;;;;3.30;1.60;;;19.70;99.90;;;;;;4997339;28;20081;-48
2022/07/29 06:10:34;;;;;;;2.40;1.42;;;19.50;99.90;;;;;;4995718;28;20049;-48
2022/07/29 06:13:00;;;;;;;5.22;1.70;;;19.20;99.90;;;;;;5001778;28;20038;-48
2022/07/29 06:15:26;;;;;;;3.08;1.80;;;19.00;99.90;;;;;;4998427;28;20049;-52
2022/07/29 06:17:52;;;;;;;4.15;1.45;;;18.80;99.90;;;;;;4996739;28;20140;-51
2022/07/29 06:20:18;;;;;;;2.28;1.63;;;18.80;99.90;;;;;;5004173;28;20108;-47
2022/07/29 06:22:44;;;;;;;6.70;1.65;;;18.70;99.90;;;;;;4995133;28;20522;-49
2022/07/29 06:25:09;;;;;;;2.58;1.70;;;19.10;99.90;;;;;;5004225;28;20072;-49
2022/07/29 06:27:35;;;;;;;7.72;2.35;;;19.40;99.90;;;;;;4995817;28;20050;-49
2022/07/29 06:30:01;;;;;;;2.75;1.63;;;19.20;99.90;;;;;;4995589;28;20114;-47
2022/07/29 06:32:27;;;;;;;3.63;1.75;;;19.00;99.90;;;;;;4996341;28;20080;-51
2022/07/29 06:34:53;;;;;;;2.05;1.60;;;19.00;99.90;;;;;;5001933;28;20073;-47
2022/07/29 06:37:18;;;;;;;4.40;1.70;;;18.80;99.90;;;;;;5002321;28;20042;-47
2022/07/29 06:39:44;;;;;;;7.22;1.90;;;18.60;99.90;;;;;;4996128;28;20073;-48
2022/07/29 06:42:10;;;;;;;3.63;1.90;;;18.40;99.90;;;;;;4980848;28;20052;-50
2022/07/29 06:44:35;;;;;;;8.32;1.73;;;18.50;99.90;;;;;;4987709;28;20053;-46
2022/07/29 06:47:01;;;;;;;4.05;1.77;;;18.40;99.90;;;;;;4978569;28;20046;-48
2022/07/29 06:49:27;;;;;;;4.07;1.80;;;18.50;99.90;;;;;;4996339;28;20063;-48
2022/07/29 06:51:53;;;;;;;3.42;1.83;;;18.60;99.90;;;;;;5001999;28;20080;-47
2022/07/29 06:54:19;;;;;;;4.00;1.80;;;18.50;99.90;;;;;;4999562;28;20046;-48
2022/07/29 06:56:45;;;;;;;2.58;1.73;;;18.40;99.90;;;;;;5005130;28;20056;-50
2022/07/29 06:59:12;;;;;;;4.32;1.95;;;;;;;;;;5005617;28;20053;-47
2022/07/29 07:01:39;;;;;;;4.57;2.05;;;18.30;99.90;;;;;;5000215;28;20077;-48
2022/07/29 07:04:06;;;;;;;3.75;1.80;;;18.30;99.90;;;;;;5006106;28;20642;-49
2022/07/29 07:06:32;;;;;;;4.05;1.90;;;18.40;99.90;;;;;;5004159;28;20042;-47
2022/07/29 07:08:57;;;;;;;3.72;1.88;;;18.50;99.90;;;;;;5001432;28;20085;-51
2022/07/29 07:11:23;;;;;;;3.35;1.80;;;18.80;99.90;;;;;;5005961;28;20442;-49
2022/07/29 07:13:49;;;;;;;4.72;1.90;;;18.60;99.90;;;;;;4992275;28;20042;-48
2022/07/29 07:16:14;;;;;;;5.18;1.83;;;18.70;99.90;;;;;;4984486;28;20033;-46
2022/07/29 07:18:40;;;;;;;4.18;2.10;;;18.80;99.90;;;;;;5003510;28;20053;-49
2022/07/29 07:21:05;;;;;;;3.97;2.03;;;18.90;99.90;;;;;;5001782;28;20150;-49
2022/07/29 07:23:31;;;;;;;5.75;1.85;;;19.20;99.90;;;;;;5008571;28;20045;-50
2022/07/29 07:25:57;;;;;;;6.20;1.95;;;19.40;99.90;;;;;;4995829;28;20086;-48
2022/07/29 07:28:22;;;;;;;5.10;1.95;;;19.70;99.90;;;;;;4979745;28;20049;-49
2022/07/29 07:30:48;;;;;;;3.50;1.80;;;19.90;99.90;;;;;;5004268;28;20501;-48
2022/07/29 07:33:14;;;;;;;3.72;2.45;;;19.80;99.90;;;;;;5008736;28;20052;-48
2022/07/29 07:35:41;;;;;;;5.18;1.98;;;19.80;99.90;;;;;;4983701;28;20050;-47
2022/07/29 07:38:06;;;;;;;2.53;1.93;;;19.60;99.90;;;;;;5001793;28;20042;-47
2022/07/29 07:40:32;;;;;;;4.13;2.20;;;19.30;99.90;;;;;;4997658;28;20050;-47
2022/07/29 07:42:58;;;;;;;3.40;1.70;;;19.00;99.90;;;;;;4998249;28;20049;-49
2022/07/29 07:45:23;;;;;;;4.18;2.03;;;18.90;99.90;;;;;;4977851;28;20104;-48
2022/07/29 07:47:49;;;;;;;3.17;2.10;;;18.90;99.90;;;;;;5001487;28;20068;-47
2022/07/29 07:50:17;;;;;;;4.18;2.10;;;18.80;99.90;;;;;;5000081;28;20038;-48
2022/07/29 07:52:50;;;;;;;;;;;18.80;99.90;;;;;;5007321;28;20097;-51
2022/07/29 07:55:17;;;;;;;5.50;1.90;;;18.70;99.90;;;;;;4997319;28;19922;-49
2022/07/29 07:57:44;;;;;;;4.05;2.50;;;18.60;99.90;;;;;;4998314;28;20049;-48
2022/07/29 08:00:10;;;;;;;6.65;2.15;;;18.50;99.90;;;;;;4998818;28;20503;-50
2022/07/29 08:02:35;;;;;;;3.88;1.77;;;18.60;99.90;;;;;;4996005;28;20129;-48
2022/07/29 08:05:01;;;;;;;3.28;1.70;;;18.60;99.90;;;;;;4999734;28;20122;-51
2022/07/29 08:07:27;;;;;;;3.78;2.50;;;18.60;99.90;;;;;;5001264;28;20034;-52
2022/07/29 08:09:52;;;;;;;6.05;2.13;;;18.60;99.90;;;;;;5004812;28;20402;-48
2022/07/29 08:12:18;;;;;;;6.30;2.55;;;18.60;99.90;;;;;;4992532;28;20046;-51
2022/07/29 08:14:43;;;;;;;3.28;1.98;;;18.70;99.90;;;;;;4989942;28;20053;-49
2022/07/29 08:17:09;;;;;;;4.13;2.30;;;18.60;99.90;;;;;;5011531;28;20054;-48
2022/07/29 08:19:36;;;;;;;4.13;2.08;;;18.60;99.90;;;;;;4993321;28;20034;-48
2022/07/29 08:22:01;;;;;;;4.63;2.10;;;18.70;99.90;;;;;;4998370;28;20129;-48
2022/07/29 08:24:42;;;;;;;6.38;2.58;;;18.70;99.90;;;;;;5013413;28;20407;-48
2022/07/29 08:27:12;;;;;;;4.90;2.25;;;18.70;99.90;;;;;;5010989;28;20057;-49
2022/07/29 08:29:38;;;;;;;5.07;1.92;;;18.70;99.90;;;;;;5007790;28;20042;-48
2022/07/29 08:32:04;;;;;;;4.45;1.77;;;18.80;99.90;;;;;;4998291;28;20453;-52
2022/07/29 08:34:30;;;;;;;4.63;2.08;;;18.60;99.90;;;;;;5010121;28;20049;-49
2022/07/29 08:36:56;;;;;;;5.60;2.08;;;18.70;99.90;;;;;;5007832;28;20040;-48
2022/07/29 08:39:23;;;;;;;3.92;2.08;;;18.60;99.90;;;;;;5000362;28;20433;-48
2022/07/29 08:41:50;;;;;;;7.00;2.50;;;18.60;99.90;;;;;;5008841;28;20080;-48
2022/07/29 08:44:17;;;;;;;7.20;2.13;;;18.50;99.90;;;;;;5002276;28;20052;-49
2022/07/29 08:46:43;;;;;;;4.80;1.90;;;18.40;99.90;;;;;;5012588;28;20046;-51
2022/07/29 08:49:09;;;;;;;3.30;1.90;;;18.40;99.90;;;;;;5000437;28;20089;-47
2022/07/29 08:51:36;;;;;;;3.90;1.92;;;18.40;99.90;;;;;;5005756;28;20121;-48
2022/07/29 08:54:02;;;;;;;6.45;2.22;;;18.50;99.90;;;;;;5009920;28;20395;-51
2022/07/29 08:56:29;;;;;;;5.57;1.90;;;18.50;99.90;;;;;;5012609;28;20042;-47
2022/07/29 08:58:57;;;;;;;6.70;2.50;;;18.30;99.90;;;;;;5010072;28;20042;-50
2022/07/29 09:01:25;;;;;;;9.07;2.58;;;18.60;99.90;;;;;;5012209;28;20120;-49
2022/07/29 09:03:55;;;;;;;5.00;2.20;;;18.70;99.90;;;;;;5009801;28;20453;-49
2022/07/29 09:06:21;;;;;;;3.67;1.85;;;18.70;99.90;;;;;;5011571;28;20104;-49
2022/07/29 09:08:48;;;;;;;5.70;2.00;;;18.60;99.90;;;;;;4990804;28;20099;-48
2022/07/29 09:11:14;;;;;;;2.70;2.00;;;18.70;99.90;;;;;;5008176;28;20046;-48
2022/07/29 09:13:40;;;;;;;3.95;2.20;;;18.80;99.90;;;;;;5004881;28;20077;-49
2022/07/29 09:16:06;;;;;;;4.22;2.33;;;18.80;99.90;;;;;;4996052;28;20058;-48
2022/07/29 09:18:39;;;;;;;6.50;2.33;;;18.90;99.90;;;;;;5010417;28;20064;-51
2022/07/29 09:24:06;;;;;;;6.95;1.80;;;19.30;99.90;;;;;;5011706;28;20101;-49
2022/07/29 09:26:38;;;;;;;5.43;2.10;;;19.50;99.90;;;;;;4979340;28;20053;-47
2022/07/29 09:29:13;;;;;;;4.15;1.98;;;19.50;99.90;;;;;;5005086;28;20417;-47
2022/07/29 09:31:45;;;;;;;4.80;1.90;;;19.50;99.90;;;;;;4992257;28;20564;-47
2022/07/29 09:34:13;;;;;;;5.82;1.83;;;19.60;99.90;;;;;;5000331;28;20042;-48
2022/07/29 09:36:46;;;;;;;4.15;2.35;;;19.60;99.90;;;;;;5009593;28;20046;-52
2022/07/29 09:39:14;;;;;;;4.72;2.35;;;19.90;99.90;;;;;;5011133;28;20801;-49
2022/07/29 09:41:48;;;;;;;5.75;2.20;;;19.90;99.90;;;;;;5011308;28;20057;-47
2022/07/29 09:44:15;;;;;;;2.53;1.98;;;19.90;99.90;;;;;;5004670;28;20048;-49
2022/07/29 09:46:56;;;;;;;5.23;2.10;;;20.00;99.90;;;;;;4994038;28;20038;-49
2022/07/29 09:49:22;;;;;;;4.47;2.10;;;20.00;99.90;;;;;;4997600;28;20383;-49
2022/07/29 09:51:59;;;;;;;2.83;1.92;;;20.10;99.90;;;;;;5007202;28;20046;-47
2022/07/29 09:54:26;;;;;;;4.68;1.77;;;19.90;99.90;;;;;;5007855;28;20173;-49
2022/07/29 09:56:52;;;;;;;8.30;1.85;;;19.90;99.90;;;;;;5011050;28;20053;-47
2022/07/29 09:59:20;;;;;;;4.75;2.05;;;20.00;99.90;;;;;;5009069;28;20470;-48
2022/07/29 10:01:46;;;;;;;4.55;1.98;;;19.90;99.90;;;;;;5007313;28;20055;-48
2022/07/29 10:04:12;;;;;;;4.05;1.83;;;19.90;99.90;;;;;;5010774;28;20046;-47
2022/07/29 10:06:56;;;;;;;9.07;2.70;;;19.90;99.90;;;;;;5007943;28;20537;-48
2022/07/29 10:09:22;;;;;;;5.05;2.17;;;19.80;99.90;;;;;;5002819;28;20110;-47
2022/07/29 10:12:07;;;;;;;2.97;2.03;;;19.80;99.90;;;;;;5010629;28;20038;-50
2022/07/29 10:14:33;;;;;;;5.45;2.10;;;19.80;99.90;;;;;;4992778;28;20043;-47
2022/07/29 10:17:03;;;;;;;7.78;2.00;;;19.80;99.90;;;;;;4991701;28;20113;-49
2022/07/29 10:19:33;;;;;;;5.45;2.15;;;20.00;99.90;;;;;;4995771;28;20397;-48
2022/07/29 10:21:59;;;;;;;3.65;1.90;;;19.90;99.90;;;;;;5008581;28;20057;-48
2022/07/29 10:24:27;;;;;;;7.53;2.10;;;20.00;99.90;;;;;;5008112;28;20034;-48
2022/07/29 10:26:55;;;;;;;4.00;1.90;;;20.10;99.90;;;;;;5011691;28;20088;-49
2022/07/29 10:29:21;;;;;;;5.40;2.25;;;20.00;99.90;;;;;;5013933;28;20149;-50
2022/07/29 10:32:05;;;;;;;3.63;2.08;;;19.90;99.90;;;;;;5013734;28;20501;-51
2022/07/29 10:35:05;;;;;;;2.80;2.08;;;20.10;99.90;;;;;;5008754;28;20430;-48
2022/07/29 10:37:56;;;;;;;2.20;1.77;;;20.10;99.90;;;;;;5005764;28;20045;-47
2022/07/29 10:43:42;;;;;;;;;;;20.20;99.90;;;;;;5006422;28;20045;-48
2022/07/29 10:46:08;;;;;;;5.82;2.05;;;20.20;99.90;;;;;;4996329;28;19957;-52
2022/07/29 10:48:34;;;;;;;4.30;1.90;;;20.30;99.90;;;;;;5012495;28;20033;-47
2022/07/29 10:51:03;;;;;;;4.43;2.10;;;20.50;99.90;;;;;;5014453;28;20442;-48
2022/07/29 10:53:52;;;;;;;4.63;1.65;;;20.50;99.90;;;;;;4997768;28;20129;-48
2022/07/29 10:56:35;;;;;;;4.32;1.80;;;20.60;99.90;;;;;;5004060;28;20237;-49
2022/07/29 10:59:26;;;;;;;5.03;2.20;;;20.80;99.90;;;;;;5005672;28;20046;-49
2022/07/29 11:01:52;;;;;;;5.43;2.30;;;20.80;99.90;;;;;;4994914;28;20092;-47
2022/07/29 11:04:43;;;;;;;4.43;2.07;;;20.90;99.90;;;;;;5003171;28;20057;-49
2022/07/29 11:07:09;;;;;;;5.10;2.05;;;20.90;99.90;;;;;;4990580;28;21540;-52
2022/07/29 11:09:34;;;;;;;3.63;2.00;;;20.90;99.90;;;;;;5007041;28;20050;-49
2022/07/29 11:12:00;;;;;;;4.03;2.00;;;20.90;99.90;;;;;;5011821;28;20061;-51
2022/07/29 11:14:55;;;;;;;3.78;2.42;;;20.90;99.90;;;;;;5012651;28;20046;-48
2022/07/29 11:17:21;;;;;;;5.47;2.40;;;21.00;99.90;;;;;;5002133;28;20488;-49
2022/07/29 11:19:46;;;;;;;3.53;2.00;;;21.00;99.90;;;;;;5005676;28;20130;-51
2022/07/29 11:22:34;;;;;;;7.68;2.42;;;21.20;99.90;;;;;;5006002;28;20107;-51
2022/07/29 11:25:18;;;;;;;5.07;2.40;;;21.30;99.90;;;;;;5006644;28;20073;-50
2022/07/29 11:27:45;;;;;;;4.85;2.30;;;21.10;99.90;;;;;;4998238;28;20066;-51
2022/07/29 11:30:11;;;;;;;4.35;2.05;;;21.20;99.90;;;;;;5012582;28;20070;-50
2022/07/29 11:32:40;;;;;;;6.75;2.13;;;21.00;99.90;;;;;;4998267;28;20038;-50
2022/07/29 11:35:13;;;;;;;8.30;2.60;;;21.00;99.90;;;;;;4989655;28;20045;-48
2022/07/29 11:37:39;;;;;;;5.25;2.38;;;20.90;99.90;;;;;;5004615;28;20053;-47
2022/07/29 11:40:04;;;;;;;6.00;2.15;;;20.90;99.90;;;;;;5011002;28;20058;-50
2022/07/29 11:42:37;;;;;;;7.57;2.53;;;21.00;99.90;;;;;;4999444;28;20045;-49
2022/07/29 11:45:13;;;;;;;4.60;2.30;;;21.10;99.90;;;;;;4999953;28;20063;-48
2022/07/29 11:47:47;;;;;;;6.85;2.47;;;21.20;99.90;;;;;;5002104;28;20406;-50
2022/07/29 11:50:16;;;;;;;4.57;2.58;;;21.20;99.90;;;;;;5002051;28;20175;-48
2022/07/29 11:52:46;;;;;;;6.22;2.63;;;21.20;99.90;;;;;;4996598;28;20398;-52
2022/07/29 11:55:16;;;;;;;3.80;2.35;;;21.30;99.90;;;;;;4980594;28;20394;-51
2022/07/29 11:57:58;;;;;;;6.00;2.35;;;21.40;99.90;;;;;;4999824;28;20042;-49
2022/07/29 12:00:45;;;;;;;5.22;2.13;;;21.40;99.90;;;;;;4986277;28;20030;-48
2022/07/29 12:03:11;;;;;;;8.48;2.10;;;21.70;99.90;;;;;;5002085;28;20046;-48
2022/07/29 12:05:42;;;;;;;3.50;2.10;;;21.80;99.90;;;;;;4981297;28;20042;-48
2022/07/29 12:08:19;;;;;;;3.90;2.20;;;21.90;99.90;;;;;;5000499;28;20038;-47
2022/07/29 12:10:46;;;;;;;4.22;2.13;;;21.90;99.90;;;;;;4995903;28;20042;-51
2022/07/29 12:13:13;;;;;;;3.58;2.20;;;22.00;99.90;;;;;;4999768;28;21439;-47
2022/07/29 12:15:40;;;;;;;5.40;2.03;;;22.00;99.90;;;;;;5000527;28;20046;-47
2022/07/29 12:18:14;;;;;;;6.70;2.23;;;22.10;99.90;;;;;;4996449;28;20052;-47
2022/07/29 12:20:40;;;;;;;6.03;2.17;;;22.20;99.90;;;;;;4998164;28;20184;-50
2022/07/29 12:23:08;;;;;;;4.03;2.25;;;22.40;99.90;;;;;;4997837;28;20050;-50
2022/07/29 12:25:36;;;;;;;5.25;2.20;;;22.50;99.90;;;;;;4981015;28;20073;-47
2022/07/29 12:28:08;;;;;;;7.32;2.28;;;22.80;99.90;;;;;;4998750;28;20042;-47
2022/07/29 12:30:41;;;;;;;4.18;2.22;;;23.00;99.90;;;;;;4993612;28;20045;-48
2022/07/29 12:33:15;;;;;;;6.05;2.40;;;23.20;99.90;;;;;;4996539;28;20047;-47
2022/07/29 12:35:44;;;;;;;7.13;2.15;;;23.30;99.90;;;;;;4999815;28;20049;-49
2022/07/29 12:38:11;;;;;;;3.95;2.13;;;;;;;;;;5000725;28;20124;-47
2022/07/29 12:40:37;;;;;;;4.90;2.30;;;23.50;99.90;;;;;;5003500;28;20085;-49
2022/07/29 12:43:28;;;;;;;9.35;2.33;;;23.60;99.90;;;;;;5004246;28;20104;-48
2022/07/29 12:45:59;;;;;;;5.20;2.10;;;23.60;99.90;;;;;;4993829;28;20066;-47
2022/07/29 12:48:42;;;;;;;6.70;2.10;;;23.70;99.90;;;;;;5002718;28;20042;-49
2022/07/29 12:51:08;;;;;;;3.13;1.70;;;23.50;99.90;;;;;;4998866;28;20046;-51
2022/07/29 12:53:35;;;;;;;4.20;2.13;;;23.50;99.90;;;;;;4998260;28;20172;-49
2022/07/29 12:56:01;;;;;;;5.70;1.90;;;23.70;99.90;;;;;;4998302;28;20077;-47
2022/07/29 12:58:33;;;;;;;6.00;2.50;;;23.70;99.80;;;;;;4972622;28;20454;-48
2022/07/29 13:01:03;;;;;;;4.85;1.95;;;23.90;99.10;;;;;;5000274;28;20406;-47
2022/07/29 13:03:41;;;;;;;3.20;1.95;;;23.70;98.80;;;;;;4991685;28;20058;-47
2022/07/29 13:06:06;;;;;;;4.85;1.95;;;23.70;98.70;;;;;;5000965;28;20061;-49
2022/07/29 13:08:32;;;;;;;5.25;1.88;;;23.90;98.90;;;;;;4998710;28;20042;-46